CYSC

Details ICAO CYSC (YSC)
Name SHERBROOKE
Region Canada
Timezone America/Montreal (UTC-5.0)
Plans Departing 32
Arriving 29
Stats Elevation 792 ft / 241 m (AMSL)
Location 45.438500° -71.691400°
Runways 1
Magnetic Variation 15.185° W
Sunrise 2018-12-18 12:23:11 UTC / 2018-12-18 07:23:11 Local
Sunset 2018-12-18 21:06:13 UTC / 2018-12-18 16:06:13 Local
Advertisement - Login to hide

Runways

ID Width Length Bearing (true/mag) Surface Threshold Overrun Markings Lighting
13 150 ft / 46 m 5,988 ft / 1,825 m 118.88° / 134.07° ASPHALT 0 ft / 0 m 0 ft / 0 m APP EDGE THRESHOLD ODALS
31 150 ft / 46 m 5,988 ft / 1,825 m 298.90° / 314.08° ASPHALT 0 ft / 0 m 0 ft / 0 m APP EDGE THRESHOLD

Map

Weather


0- 5 10 15 20 25 30 35+ Temperature / °C

Clouds and Precipitation
Forecast for 2018-12-18 12:00 UTC. Updated 3 hours ago

Ground ~20,000 ft ~40,000 ft Winds

METAR

CYSC 181200Z AUTO 29016KT 9SM -SN OVC021 M10/M13 A2982 RMK SLP113

TAF

Not found

Frequencies

Tower 123.50 MHz MF
Unicom 123.50 MHz CTAF/UNICOM
Recorded 126.25 MHz AWOS
Warning: Do not use this data for real-world aviation or navigation. No guarantee of current accuracy is given.